createdAt,value
2018-08-25T00:00:05.162Z,25.1
2018-08-25T00:02:07.990Z,25.1
2018-08-25T00:04:04.701Z,25.1
2018-08-25T00:06:05.404Z,25.1
2018-08-25T00:08:10.155Z,25.1
2018-08-25T00:10:04.954Z,25.1
2018-08-25T00:12:04.592Z,25.1
2018-08-25T00:14:07.275Z,25.1
2018-08-25T00:16:04.965Z,25.1
2018-08-25T00:18:04.970Z,25.1
2018-08-25T00:20:04.686Z,25.1
2018-08-25T00:22:13.143Z,25.1
2018-08-25T00:24:04.797Z,25.1
2018-08-25T00:26:05.153Z,25.1
2018-08-25T00:28:07.988Z,25.1
2018-08-25T00:30:07.396Z,25.1
2018-08-25T00:32:07.887Z,25
2018-08-25T00:34:05.092Z,25
2018-08-25T00:36:04.795Z,25.1
2018-08-25T00:38:05.088Z,25
2018-08-25T00:40:04.845Z,25.1
2018-08-25T00:42:05.565Z,25
2018-08-25T00:44:07.853Z,25
2018-08-25T00:46:05.103Z,25.1
2018-08-25T00:48:04.831Z,25
2018-08-25T00:50:07.377Z,25
2018-08-25T00:52:07.632Z,25
2018-08-25T00:54:07.668Z,25
2018-08-25T00:56:05.445Z,25
2018-08-25T00:58:04.677Z,25
2018-08-25T01:00:06.368Z,25
2018-08-25T01:02:10.679Z,25
2018-08-25T01:04:07.961Z,25
2018-08-25T01:06:09.683Z,24.9
2018-08-25T01:08:07.904Z,25
2018-08-25T01:10:05.584Z,24.9
2018-08-25T01:12:04.839Z,24.9
2018-08-25T01:14:05.525Z,24.9
2018-08-25T01:16:05.217Z,24.9
2018-08-25T01:18:05.089Z,24.9
2018-08-25T01:20:05.024Z,24.9
2018-08-25T01:22:04.986Z,24.9
2018-08-25T01:24:04.734Z,24.8
2018-08-25T01:26:05.506Z,24.9
2018-08-25T01:28:11.382Z,24.9
2018-08-25T01:30:10.118Z,24.9
2018-08-25T01:32:07.600Z,24.9
2018-08-25T01:34:07.858Z,24.8
2018-08-25T01:36:05.115Z,24.8
2018-08-25T01:38:05.029Z,24.8
2018-08-25T01:40:04.846Z,24.8
2018-08-25T01:42:10.592Z,24.8
2018-08-25T01:44:05.279Z,24.8
2018-08-25T01:46:05.200Z,24.8
2018-08-25T01:48:04.910Z,24.8
2018-08-25T01:50:04.789Z,24.8
2018-08-25T01:52:05.523Z,24.8
2018-08-25T01:54:07.823Z,24.8
2018-08-25T01:56:05.518Z,24.8
2018-08-25T01:58:05.228Z,24.8
2018-08-25T02:00:07.895Z,24.7
2018-08-25T02:02:05.445Z,24.8
2018-08-25T02:04:05.384Z,24.8
2018-08-25T02:06:05.070Z,24.7
2018-08-25T02:08:13.105Z,24.7
2018-08-25T02:10:04.867Z,24.6
2018-08-25T02:12:05.101Z,24.7
2018-08-25T02:14:04.879Z,24.7
2018-08-25T02:16:05.626Z,24.7
2018-08-25T02:18:10.132Z,24.6
2018-08-25T02:20:10.657Z,24.6
2018-08-25T02:22:05.356Z,24.6
2018-08-25T02:24:05.019Z,24.7
2018-08-25T02:26:04.723Z,24.7
2018-08-25T02:28:05.494Z,24.7
2018-08-25T02:30:05.534Z,24.7
2018-08-25T02:32:07.289Z,24.6
2018-08-25T02:34:05.114Z,24.6
2018-08-25T02:36:04.808Z,24.6
2018-08-25T02:38:05.057Z,24.7
2018-08-25T02:40:07.888Z,24.6
2018-08-25T02:42:10.614Z,24.6
2018-08-25T02:44:05.374Z,24.5
2018-08-25T02:46:05.073Z,24.6
2018-08-25T02:48:04.761Z,24.5
2018-08-25T02:50:10.511Z,24.5
2018-08-25T02:52:05.270Z,24.5
2018-08-25T02:54:07.593Z,24.6
2018-08-25T02:56:05.270Z,24.7
2018-08-25T02:58:10.038Z,24.6
2018-08-25T03:00:04.742Z,24.6
2018-08-25T03:02:05.437Z,24.7
2018-08-25T03:04:05.088Z,24.7
2018-08-25T03:06:04.762Z,24.7
2018-08-25T03:08:05.002Z,24.6
2018-08-25T03:10:05.258Z,24.7
2018-08-25T03:12:07.550Z,24.7
2018-08-25T03:14:05.207Z,24.7
2018-08-25T03:16:07.518Z,24.7
2018-08-25T03:18:05.372Z,24.7
2018-08-25T03:20:10.648Z,24.7
2018-08-25T03:22:07.983Z,24.8
2018-08-25T03:24:04.769Z,24.7
2018-08-25T03:26:05.431Z,24.8
2018-08-25T03:28:05.133Z,24.8
2018-08-25T03:30:04.863Z,24.8
2018-08-25T03:32:05.098Z,24.8
2018-08-25T03:34:04.788Z,24.8
2018-08-25T03:36:05.488Z,24.8
2018-08-25T03:38:05.120Z,24.8
2018-08-25T03:40:04.825Z,24.8
2018-08-25T03:42:08.100Z,24.8
2018-08-25T03:44:04.809Z,24.7
2018-08-25T03:46:10.577Z,24.8
2018-08-25T03:48:05.273Z,24.8
2018-08-25T03:50:05.018Z,24.7
2018-08-25T03:52:04.810Z,24.8
2018-08-25T03:54:05.070Z,24.7
2018-08-25T03:56:04.764Z,24.8
2018-08-25T03:58:05.523Z,24.8
2018-08-25T04:00:05.214Z,24.8
2018-08-25T04:02:07.603Z,24.8
2018-08-25T04:04:07.865Z,24.7
2018-08-25T04:06:05.558Z,24.7
2018-08-25T04:08:05.241Z,24.7
2018-08-25T04:10:07.557Z,24.7
2018-08-25T04:12:05.340Z,24.7
2018-08-25T04:14:05.061Z,24.7
2018-08-25T04:16:05.342Z,24.7
2018-08-25T04:18:05.227Z,24.7
2018-08-25T04:20:05.481Z,24.7
2018-08-25T04:22:05.268Z,24.7
2018-08-25T04:24:05.242Z,24.7
2018-08-25T04:26:07.552Z,24.7
2018-08-25T04:28:05.320Z,24.7
2018-08-25T04:30:05.139Z,24.7
2018-08-25T04:32:04.929Z,24.7
2018-08-25T04:34:05.248Z,24.7
2018-08-25T04:36:05.049Z,24.7
2018-08-25T04:38:07.228Z,24.7
2018-08-25T04:40:05.471Z,24.7
2018-08-25T04:42:05.209Z,24.7
2018-08-25T04:44:09.966Z,24.7
2018-08-25T04:46:17.905Z,24.7
2018-08-25T04:48:05.614Z,24.7
2018-08-25T04:50:05.368Z,24.7
2018-08-25T04:52:05.114Z,24.7
2018-08-25T04:54:08.413Z,24.7
2018-08-25T04:56:10.286Z,24.7
2018-08-25T04:58:05.030Z,24.7
2018-08-25T05:00:04.765Z,24.7
2018-08-25T05:02:05.015Z,24.7
2018-08-25T05:04:04.753Z,24.7
2018-08-25T05:06:05.425Z,24.7
2018-08-25T05:08:05.151Z,24.7
2018-08-25T05:10:04.875Z,24.7
2018-08-25T05:12:05.593Z,24.6
2018-08-25T05:14:05.289Z,24.6
2018-08-25T05:16:04.971Z,24.7
2018-08-25T05:18:04.908Z,24.6
2018-08-25T05:20:04.657Z,24.6
2018-08-25T05:22:05.530Z,24.6
2018-08-25T05:24:04.653Z,24.6
2018-08-25T05:26:05.377Z,24.6
2018-08-25T05:28:07.573Z,24.6
2018-08-25T05:30:05.293Z,24.6
2018-08-25T05:32:05.018Z,24.5
2018-08-25T05:34:05.345Z,24.5
2018-08-25T05:36:05.030Z,24.5
2018-08-25T05:38:04.796Z,24.5
2018-08-25T05:40:05.575Z,24.5
2018-08-25T05:42:07.791Z,24.5
2018-08-25T05:44:05.501Z,24.5
2018-08-25T05:46:05.387Z,24.5
2018-08-25T05:48:07.733Z,24.5
2018-08-25T05:50:08.065Z,24.5
2018-08-25T05:52:07.374Z,24.5
2018-08-25T05:54:05.072Z,24.5
2018-08-25T05:56:04.765Z,24.5
2018-08-25T05:58:05.504Z,24.5
2018-08-25T06:00:05.236Z,24.5
2018-08-25T06:02:04.946Z,24.5
2018-08-25T06:04:04.827Z,24.5
2018-08-25T06:06:05.583Z,24.5
2018-08-25T06:08:08.010Z,24.6
2018-08-25T06:10:04.761Z,24.5
2018-08-25T06:12:08.030Z,24.5
2018-08-25T06:14:04.750Z,24.5
2018-08-25T06:16:07.969Z,24.5
2018-08-25T06:18:07.478Z,24.5
2018-08-25T06:20:05.331Z,24.5
2018-08-25T06:22:05.021Z,24.5
2018-08-25T06:24:09.750Z,24.5
2018-08-25T06:26:05.468Z,24.5
2018-08-25T06:28:05.306Z,24.5
2018-08-25T06:30:07.592Z,24.5
2018-08-25T06:32:04.966Z,24.5
2018-08-25T06:34:05.284Z,24.5
2018-08-25T06:36:05.086Z,24.5
2018-08-25T06:38:05.221Z,24.5
2018-08-25T06:40:04.954Z,24.5
2018-08-25T06:42:05.159Z,24.5
2018-08-25T06:44:10.043Z,24.6
2018-08-25T06:46:04.844Z,24.6
2018-08-25T06:48:05.712Z,24.6
2018-08-25T06:50:08.068Z,24.7
2018-08-25T06:52:04.832Z,24.7
2018-08-25T06:54:05.593Z,24.7
2018-08-25T06:56:04.957Z,24.7
2018-08-25T06:58:07.221Z,24.8
2018-08-25T07:00:05.633Z,24.8
2018-08-25T07:02:05.374Z,24.8
2018-08-25T07:04:12.709Z,24.8
2018-08-25T07:06:05.594Z,24.8
2018-08-25T07:08:04.788Z,24.8
2018-08-25T07:10:05.516Z,24.7
2018-08-25T07:12:18.526Z,24.8
2018-08-25T07:14:04.652Z,24.7
2018-08-25T07:16:10.482Z,24.7
2018-08-25T07:18:06.722Z,24.7
2018-08-25T07:20:05.157Z,24.7
2018-08-25T07:22:04.938Z,24.7
2018-08-25T07:24:07.214Z,24.7
2018-08-25T07:26:05.526Z,24.7
2018-08-25T07:28:07.912Z,24.7
2018-08-25T07:30:05.225Z,24.7
2018-08-25T07:32:04.947Z,24.7
2018-08-25T07:34:05.345Z,24.7
2018-08-25T07:36:08.115Z,24.7
2018-08-25T07:38:07.920Z,24.7
2018-08-25T07:40:14.738Z,24.6
2018-08-25T07:42:05.453Z,24.6
2018-08-25T07:44:05.197Z,24.6
2018-08-25T07:46:08.008Z,24.6
2018-08-25T07:48:04.853Z,24.7
2018-08-25T07:50:08.118Z,24.7
2018-08-25T07:52:04.827Z,24.7
2018-08-25T07:54:05.571Z,24.7
2018-08-25T07:56:07.916Z,24.7
2018-08-25T07:58:10.716Z,24.8
2018-08-25T08:00:05.422Z,24.8
2018-08-25T08:02:08.649Z,24.8
2018-08-25T08:04:09.956Z,24.7
2018-08-25T08:06:07.817Z,24.8
2018-08-25T08:08:05.519Z,24.7
2018-08-25T08:10:05.225Z,24.8
2018-08-25T08:12:07.726Z,24.8
2018-08-25T08:14:08.127Z,24.7
2018-08-25T08:16:04.923Z,24.7
2018-08-25T08:18:04.867Z,24.7
2018-08-25T08:20:05.118Z,24.7
2018-08-25T08:22:04.883Z,24.7
2018-08-25T08:24:05.591Z,24.7
2018-08-25T08:26:04.810Z,24.7
2018-08-25T08:28:05.469Z,24.7
2018-08-25T08:30:05.260Z,24.7
2018-08-25T08:32:05.504Z,24.7
2018-08-25T08:34:05.289Z,24.6
2018-08-25T08:36:10.044Z,24.6
2018-08-25T08:38:07.843Z,24.6
2018-08-25T08:40:05.561Z,24.6
2018-08-25T08:42:05.260Z,24.6
2018-08-25T08:44:05.150Z,24.5
2018-08-25T08:46:04.884Z,24.5
2018-08-25T08:48:08.174Z,24.5
2018-08-25T08:50:04.955Z,24.4
2018-08-25T08:52:07.376Z,24.5
2018-08-25T08:54:05.642Z,24.4
2018-08-25T08:56:05.481Z,24.5
2018-08-25T08:58:07.810Z,24.5
2018-08-25T09:00:04.990Z,24.4
2018-08-25T09:02:04.999Z,24.4
2018-08-25T09:04:04.702Z,24.4
2018-08-25T09:06:05.404Z,24.4
2018-08-25T09:08:05.115Z,24.4
2018-08-25T09:10:04.816Z,24.4
2018-08-25T09:12:05.483Z,24.4
2018-08-25T09:14:05.174Z,24.4
2018-08-25T09:16:04.937Z,24.4
2018-08-25T09:18:07.403Z,24.4
2018-08-25T09:20:04.856Z,24.4
2018-08-25T09:22:09.734Z,24.3
2018-08-25T09:24:07.950Z,24.4
2018-08-25T09:26:04.636Z,24.4
2018-08-25T09:28:05.375Z,24.4
2018-08-25T09:30:05.116Z,24.3
2018-08-25T09:32:05.452Z,24.3
2018-08-25T09:34:05.393Z,24.3
2018-08-25T09:36:05.189Z,24.3
2018-08-25T09:38:05.160Z,24.3
2018-08-25T09:40:09.926Z,24.3
2018-08-25T09:42:04.633Z,24.3
2018-08-25T09:44:04.934Z,24.3
2018-08-25T09:46:04.615Z,24.3
2018-08-25T09:48:05.373Z,24.3
2018-08-25T09:50:05.649Z,24.3
2018-08-25T09:52:05.463Z,24.3
2018-08-25T09:54:05.166Z,24.3
2018-08-25T09:56:05.441Z,24.3
2018-08-25T09:58:05.288Z,24.3
2018-08-25T10:00:05.568Z,24.3
2018-08-25T10:02:05.289Z,24.3
2018-08-25T10:04:05.270Z,24.2
2018-08-25T10:06:05.028Z,24.3
2018-08-25T10:08:05.296Z,24.3
2018-08-25T10:10:07.557Z,24.2
2018-08-25T10:12:05.266Z,24.2
2018-08-25T10:14:04.973Z,24.2
2018-08-25T10:16:04.639Z,24.2
2018-08-25T10:18:05.523Z,24.2
2018-08-25T10:20:05.287Z,24.2
2018-08-25T10:22:05.120Z,24.2
2018-08-25T10:24:04.853Z,24.2
2018-08-25T10:26:05.577Z,24.2
2018-08-25T10:28:05.410Z,24.2
2018-08-25T10:30:05.156Z,24.2
2018-08-25T10:32:07.427Z,24.3
2018-08-25T10:34:05.165Z,24.3
2018-08-25T10:36:07.388Z,24.3
2018-08-25T10:38:05.132Z,24.3
2018-08-25T10:40:04.900Z,24.3
2018-08-25T10:42:05.701Z,24.3
2018-08-25T10:44:04.900Z,24.3
2018-08-25T10:46:05.668Z,24.3
2018-08-25T10:48:05.603Z,24.3
2018-08-25T10:50:05.424Z,24.3
2018-08-25T10:52:05.193Z,24.3
2018-08-25T10:54:05.077Z,24.3
2018-08-25T10:56:04.701Z,24.3
2018-08-25T10:58:05.414Z,24.3
2018-08-25T11:00:05.154Z,24.3
2018-08-25T11:02:07.685Z,24.3
2018-08-25T11:04:05.404Z,24.3
2018-08-25T11:06:05.094Z,24.3
2018-08-25T11:08:04.806Z,24.2
2018-08-25T11:10:08.063Z,24.2
2018-08-25T11:12:04.786Z,24.3
2018-08-25T11:14:05.469Z,24.3
2018-08-25T11:16:12.827Z,24.3
2018-08-25T11:18:04.751Z,24.3
2018-08-25T11:20:05.482Z,24.2
2018-08-25T11:22:05.253Z,24.2
2018-08-25T11:24:04.984Z,24.3
2018-08-25T11:26:04.680Z,24.3
2018-08-25T11:28:05.452Z,24.3
2018-08-25T11:30:07.683Z,24.3
2018-08-25T11:32:05.413Z,24.3
2018-08-25T11:34:05.112Z,24.3
2018-08-25T11:36:05.080Z,24.3
2018-08-25T11:38:04.860Z,24.3
2018-08-25T11:40:05.134Z,24.2
2018-08-25T11:42:04.909Z,24.2
2018-08-25T11:44:04.729Z,24.2
2018-08-25T11:46:04.893Z,24.2
2018-08-25T11:48:05.585Z,24.2
2018-08-25T11:50:10.380Z,24.1
2018-08-25T11:52:05.201Z,24.1
2018-08-25T11:54:04.917Z,24.1
2018-08-25T11:56:04.927Z,24
2018-08-25T11:58:04.620Z,24
2018-08-25T12:00:07.928Z,24
2018-08-25T12:02:04.672Z,24.1
2018-08-25T12:04:05.649Z,24
2018-08-25T12:06:10.472Z,23.9
2018-08-25T12:08:05.176Z,23.9
2018-08-25T12:10:04.876Z,23.8
2018-08-25T12:12:05.616Z,23.7
2018-08-25T12:14:12.925Z,23.7
2018-08-25T12:16:04.674Z,23.8
2018-08-25T12:18:05.579Z,23.8
2018-08-25T12:20:07.778Z,24
2018-08-25T12:22:05.517Z,23.9
2018-08-25T12:24:05.282Z,23.9
2018-08-25T12:26:05.325Z,23.9
2018-08-25T12:28:05.135Z,23.9
2018-08-25T12:30:04.902Z,24
2018-08-25T12:32:05.594Z,23.9
2018-08-25T12:34:05.318Z,23.9
2018-08-25T12:36:05.086Z,23.9
2018-08-25T12:38:04.870Z,23.8
2018-08-25T12:40:07.677Z,23.9
2018-08-25T12:42:04.932Z,23.9
2018-08-25T12:44:04.678Z,23.8
2018-08-25T12:46:07.921Z,23.9
2018-08-25T12:48:05.589Z,23.8
2018-08-25T12:50:05.343Z,23.8
2018-08-25T12:52:05.092Z,23.8
2018-08-25T12:54:04.827Z,23.8
2018-08-25T12:56:05.916Z,23.8
2018-08-25T12:58:05.728Z,23.8
2018-08-25T13:00:08.313Z,23.8
2018-08-25T13:02:05.378Z,23.8
2018-08-25T13:04:07.612Z,23.8
2018-08-25T13:06:10.732Z,23.8
2018-08-25T13:08:05.031Z,23.8
2018-08-25T13:10:05.737Z,23.8
2018-08-25T13:12:05.487Z,23.7
2018-08-25T13:14:05.057Z,23.7
2018-08-25T13:16:16.165Z,23.7
2018-08-25T13:18:05.181Z,23.7
2018-08-25T13:20:08.528Z,23.7
2018-08-25T13:22:04.727Z,23.7
2018-08-25T13:24:05.514Z,23.7
2018-08-25T13:26:05.274Z,23.7
2018-08-25T13:28:07.821Z,23.7
2018-08-25T13:30:08.161Z,23.7
2018-08-25T13:32:04.946Z,23.7
2018-08-25T13:34:04.667Z,23.6
2018-08-25T13:36:07.983Z,23.6
2018-08-25T13:38:05.239Z,23.6
2018-08-25T13:40:05.239Z,23.6
2018-08-25T13:42:05.400Z,23.6
2018-08-25T13:44:07.219Z,23.5
2018-08-25T13:46:05.120Z,23.4
2018-08-25T13:48:04.871Z,23.4
2018-08-25T13:50:05.615Z,23.4
2018-08-25T13:52:04.939Z,23.4
2018-08-25T13:54:05.135Z,23.4
2018-08-25T13:56:04.882Z,23.4
2018-08-25T13:58:04.833Z,23.4
2018-08-25T14:00:04.687Z,23.4
2018-08-25T14:02:05.616Z,23.4
2018-08-25T14:04:04.890Z,23.4
2018-08-25T14:06:04.827Z,23.5
2018-08-25T14:08:05.612Z,23.5
2018-08-25T14:10:05.173Z,23.5
2018-08-25T14:12:05.149Z,23.5
2018-08-25T14:14:04.860Z,23.5
2018-08-25T14:16:10.967Z,23.5
2018-08-25T14:18:04.788Z,23.5
2018-08-25T14:20:05.282Z,23.5
2018-08-25T14:22:04.995Z,23.5
2018-08-25T14:24:09.963Z,23.5
2018-08-25T14:26:05.212Z,23.5
2018-08-25T14:28:04.993Z,23.5
2018-08-25T14:30:04.861Z,23.5
2018-08-25T14:32:10.694Z,23.4
2018-08-25T14:34:10.381Z,23.5
2018-08-25T14:36:09.840Z,23.5
2018-08-25T14:38:04.670Z,23.4
2018-08-25T14:40:10.492Z,23.4
2018-08-25T14:42:05.204Z,23.4
2018-08-25T14:44:05.471Z,23.4
2018-08-25T14:46:05.171Z,23.4
2018-08-25T14:48:07.864Z,23.4
2018-08-25T14:50:05.552Z,23.4
2018-08-25T14:52:04.860Z,23.4
2018-08-25T14:54:05.702Z,23.4
2018-08-25T14:56:05.379Z,23.4
2018-08-25T14:58:05.489Z,23.4
2018-08-25T15:00:05.476Z,23.5
2018-08-25T15:02:10.285Z,23.5
2018-08-25T15:04:04.986Z,23.5
2018-08-25T15:06:04.660Z,23.5
2018-08-25T15:08:05.447Z,23.5
2018-08-25T15:10:05.549Z,23.5
2018-08-25T15:12:04.777Z,23.5
2018-08-25T15:14:05.437Z,23.5
2018-08-25T15:16:05.189Z,23.6
2018-08-25T15:18:05.147Z,23.6
2018-08-25T15:20:04.900Z,23.6
2018-08-25T15:22:05.165Z,23.6
2018-08-25T15:24:07.448Z,23.6
2018-08-25T15:26:05.211Z,23.6
2018-08-25T15:28:04.972Z,23.6
2018-08-25T15:30:04.697Z,23.5
2018-08-25T15:32:05.406Z,23.5
2018-08-25T15:34:10.201Z,23.5
2018-08-25T15:36:05.163Z,23.5
2018-08-25T15:38:05.190Z,23.5
2018-08-25T15:40:12.844Z,23.4
2018-08-25T15:42:08.495Z,23.5
2018-08-25T15:44:04.800Z,23.5
2018-08-25T15:46:04.675Z,23.4
2018-08-25T15:48:05.024Z,23.4
2018-08-25T15:50:04.844Z,23.4
2018-08-25T15:52:05.598Z,23.4
2018-08-25T15:54:05.525Z,23.5
2018-08-25T15:56:05.282Z,23.5
2018-08-25T15:58:05.251Z,23.4
2018-08-25T16:00:07.713Z,23.4
2018-08-25T16:02:05.453Z,23.4
2018-08-25T16:04:05.145Z,23.4
2018-08-25T16:06:08.253Z,23.5
2018-08-25T16:08:07.980Z,23.4
2018-08-25T16:10:07.802Z,23.5
2018-08-25T16:12:05.784Z,23.5
2018-08-25T16:14:05.798Z,23.5
2018-08-25T16:16:10.595Z,23.5
2018-08-25T16:18:08.244Z,23.5
2018-08-25T16:20:05.062Z,23.5
2018-08-25T16:22:12.496Z,23.5
2018-08-25T16:24:05.397Z,23.5
2018-08-25T16:26:05.463Z,23.5
2018-08-25T16:28:07.759Z,23.4
2018-08-25T16:30:05.227Z,23.4
2018-08-25T16:32:04.907Z,23.4
2018-08-25T16:34:05.652Z,23.4
2018-08-25T16:36:05.345Z,23.4
2018-08-25T16:38:05.104Z,23.4
2018-08-25T16:40:04.950Z,23.4
2018-08-25T16:42:04.686Z,23.4
2018-08-25T16:44:07.988Z,23.4
2018-08-25T16:46:12.274Z,23.4
2018-08-25T16:48:04.961Z,23.3
2018-08-25T16:50:04.676Z,23.4
2018-08-25T16:52:05.399Z,23.4
2018-08-25T16:54:05.121Z,23.4
2018-08-25T16:56:04.811Z,23.4
2018-08-25T16:58:05.553Z,23.4
2018-08-25T17:00:05.256Z,23.5
2018-08-25T17:02:08.152Z,23.4
2018-08-25T17:04:05.283Z,23.4
2018-08-25T17:06:05.110Z,23.5
2018-08-25T17:08:04.837Z,23.5
2018-08-25T17:10:05.133Z,23.5
2018-08-25T17:12:20.010Z,23.5
2018-08-25T17:14:04.702Z,23.5
2018-08-25T17:16:05.484Z,23.5
2018-08-25T17:18:05.437Z,23.5
2018-08-25T17:20:05.132Z,23.5
2018-08-25T17:22:07.517Z,23.5
2018-08-25T17:24:04.863Z,23.5
2018-08-25T17:26:08.177Z,23.5
2018-08-25T17:28:04.952Z,23.5
2018-08-25T17:30:04.660Z,23.5
2018-08-25T17:32:05.370Z,23.5
2018-08-25T17:34:08.241Z,23.5
2018-08-25T17:36:05.015Z,23.5
2018-08-25T17:38:05.242Z,23.5
2018-08-25T17:40:05.007Z,23.6
2018-08-25T17:42:09.868Z,23.6
2018-08-25T17:44:09.899Z,23.6
2018-08-25T17:46:10.657Z,23.6
2018-08-25T17:48:05.467Z,23.6
2018-08-25T17:50:05.173Z,23.6
2018-08-25T17:52:04.882Z,23.6
2018-08-25T17:54:05.586Z,23.6
2018-08-25T17:56:10.357Z,23.6
2018-08-25T17:58:05.079Z,23.6
2018-08-25T18:00:04.795Z,23.6
2018-08-25T18:02:08.292Z,23.6
2018-08-25T18:04:05.640Z,23.6
2018-08-25T18:06:05.412Z,23.6
2018-08-25T18:08:05.167Z,23.6
2018-08-25T18:10:07.389Z,23.6
2018-08-25T18:12:05.070Z,23.6
2018-08-25T18:14:05.006Z,23.6
2018-08-25T18:16:04.988Z,23.6
2018-08-25T18:18:09.910Z,23.6
2018-08-25T18:20:08.370Z,23.6
2018-08-25T18:22:07.770Z,23.7
2018-08-25T18:24:04.700Z,23.6
2018-08-25T18:26:04.603Z,23.7
2018-08-25T18:28:10.364Z,23.7
2018-08-25T18:30:05.071Z,23.8
2018-08-25T18:32:07.985Z,23.9
2018-08-25T18:34:05.569Z,23.9
2018-08-25T18:36:05.480Z,24
2018-08-25T18:38:05.220Z,24
2018-08-25T18:40:07.446Z,24.2
2018-08-25T18:42:05.159Z,24.1
2018-08-25T18:44:07.610Z,24.2
2018-08-25T18:46:05.331Z,24.2
2018-08-25T18:48:07.549Z,24.3
2018-08-25T18:50:05.379Z,24.2
2018-08-25T18:52:20.518Z,24.3
2018-08-25T18:54:05.500Z,24.3
2018-08-25T18:56:07.709Z,24.3
2018-08-25T18:58:05.315Z,24.3
2018-08-25T19:00:04.761Z,24.4
2018-08-25T19:02:05.688Z,24.4
2018-08-25T19:04:05.605Z,24.4
2018-08-25T19:06:07.923Z,24.4
2018-08-25T19:08:05.635Z,24.4
2018-08-25T19:10:05.402Z,24.5
2018-08-25T19:12:05.365Z,24.5
2018-08-25T19:14:05.097Z,24.5
2018-08-25T19:16:05.182Z,24.5
2018-08-25T19:18:10.196Z,24.5
2018-08-25T19:20:06.459Z,24.5
2018-08-25T19:22:05.178Z,24.5
2018-08-25T19:24:04.645Z,24.5
2018-08-25T19:26:08.130Z,24.5
2018-08-25T19:28:08.457Z,24.5
2018-08-25T19:30:05.144Z,24.5
2018-08-25T19:32:05.031Z,24.5
2018-08-25T19:34:04.733Z,24.5
2018-08-25T19:36:04.744Z,24.5
2018-08-25T19:38:06.410Z,24.4
2018-08-25T19:40:05.080Z,24.4
2018-08-25T19:42:04.780Z,24.3
2018-08-25T19:44:05.489Z,24.3
2018-08-25T19:46:05.192Z,24.3
2018-08-25T19:48:06.482Z,24.2
2018-08-25T19:50:09.804Z,24.2
2018-08-25T19:52:05.532Z,24.2
2018-08-25T19:54:05.282Z,24.1
2018-08-25T19:56:07.532Z,24.1
2018-08-25T19:58:05.194Z,24.1
2018-08-25T20:00:07.836Z,24
2018-08-25T20:02:04.855Z,24
2018-08-25T20:04:05.610Z,24
2018-08-25T20:06:05.355Z,24
2018-08-25T20:08:05.070Z,24
2018-08-25T20:10:04.912Z,24
2018-08-25T20:12:05.668Z,24
2018-08-25T20:14:07.904Z,23.9
2018-08-25T20:16:07.145Z,23.9
2018-08-25T20:18:05.547Z,23.9
2018-08-25T20:20:05.201Z,23.9
2018-08-25T20:22:05.243Z,23.9
2018-08-25T20:24:05.466Z,23.9
2018-08-25T20:26:05.138Z,23.8
2018-08-25T20:28:05.409Z,23.9
2018-08-25T20:30:07.781Z,23.8
2018-08-25T20:32:07.160Z,23.8
2018-08-25T20:34:05.111Z,23.8
2018-08-25T20:36:04.886Z,23.8
2018-08-25T20:38:10.765Z,23.8
2018-08-25T20:40:04.717Z,23.8
2018-08-25T20:42:05.453Z,23.8
2018-08-25T20:44:05.163Z,23.8
2018-08-25T20:46:04.882Z,23.8
2018-08-25T20:48:04.677Z,23.8
2018-08-25T20:50:05.562Z,23.8
2018-08-25T20:52:05.285Z,23.8
2018-08-25T20:54:07.555Z,23.8
2018-08-25T20:56:05.312Z,23.8
2018-08-25T20:58:07.504Z,23.8
2018-08-25T21:00:07.734Z,23.8
2018-08-25T21:02:05.455Z,23.7
2018-08-25T21:04:07.340Z,23.8
2018-08-25T21:06:05.310Z,23.7
2018-08-25T21:08:05.030Z,23.8
2018-08-25T21:10:09.797Z,23.7
2018-08-25T21:12:05.485Z,23.7
2018-08-25T21:14:05.231Z,23.7
2018-08-25T21:16:07.868Z,23.7
2018-08-25T21:18:05.329Z,23.7
2018-08-25T21:20:05.109Z,23.7
2018-08-25T21:22:05.167Z,23.7
2018-08-25T21:24:05.100Z,23.7
2018-08-25T21:26:07.355Z,23.7
2018-08-25T21:28:05.152Z,23.7
2018-08-25T21:30:05.144Z,23.7
2018-08-25T21:32:05.432Z,23.7
2018-08-25T21:34:05.237Z,23.7
2018-08-25T21:36:04.982Z,23.7
2018-08-25T21:38:04.745Z,23.7
2018-08-25T21:40:05.482Z,23.7
2018-08-25T21:42:04.751Z,23.7
2018-08-25T21:44:05.449Z,23.7
2018-08-25T21:46:05.146Z,23.6
2018-08-25T21:48:08.002Z,23.6
2018-08-25T21:50:09.805Z,23.6
2018-08-25T21:52:08.049Z,23.6
2018-08-25T21:54:07.811Z,23.6
2018-08-25T21:56:05.482Z,23.6
2018-08-25T21:58:05.215Z,23.6
2018-08-25T22:00:07.936Z,23.6
2018-08-25T22:02:05.025Z,23.6
2018-08-25T22:04:04.767Z,23.6
2018-08-25T22:06:05.490Z,23.6
2018-08-25T22:08:05.202Z,23.6
2018-08-25T22:10:09.949Z,23.6
2018-08-25T22:12:04.648Z,23.6
2018-08-25T22:14:05.390Z,23.6
2018-08-25T22:16:05.198Z,23.6
2018-08-25T22:18:05.701Z,23.6
2018-08-25T22:20:05.442Z,23.6
2018-08-25T22:22:04.661Z,23.5
2018-08-25T22:24:07.903Z,23.6
2018-08-25T22:26:05.687Z,23.5
2018-08-25T22:28:05.377Z,23.6
2018-08-25T22:30:05.085Z,23.6
2018-08-25T22:32:04.793Z,23.6
2018-08-25T22:34:13.492Z,23.5
2018-08-25T22:36:04.716Z,23.5
2018-08-25T22:38:05.431Z,23.6
2018-08-25T22:40:05.203Z,23.5
2018-08-25T22:42:04.877Z,23.6
2018-08-25T22:44:07.833Z,23.6
2018-08-25T22:46:05.546Z,23.5
2018-08-25T22:48:04.797Z,23.6
2018-08-25T22:50:05.522Z,23.5
2018-08-25T22:52:05.272Z,23.6
2018-08-25T22:54:05.020Z,23.5
2018-08-25T22:56:04.685Z,23.5
2018-08-25T22:58:05.332Z,23.6
2018-08-25T23:00:07.558Z,23.5
2018-08-25T23:02:05.206Z,23.5
2018-08-25T23:04:05.475Z,23.5
2018-08-25T23:06:05.302Z,23.5
2018-08-25T23:08:05.021Z,23.5
2018-08-25T23:10:04.817Z,23.5
2018-08-25T23:12:04.677Z,23.5
2018-08-25T23:14:05.399Z,23.5
2018-08-25T23:16:10.315Z,23.5
2018-08-25T23:18:04.728Z,23.5
2018-08-25T23:20:05.764Z,23.5
2018-08-25T23:22:05.447Z,23.5
2018-08-25T23:24:05.155Z,23.5
2018-08-25T23:26:04.997Z,23.5
2018-08-25T23:28:04.692Z,23.5
2018-08-25T23:30:07.927Z,23.5
2018-08-25T23:32:04.679Z,23.5
2018-08-25T23:34:07.933Z,23.5
2018-08-25T23:36:08.129Z,23.5
2018-08-25T23:38:05.033Z,23.5
2018-08-25T23:40:05.337Z,23.5
2018-08-25T23:42:05.004Z,23.5
2018-08-25T23:44:10.270Z,23.5
2018-08-25T23:46:05.104Z,23.5
2018-08-25T23:48:04.916Z,23.5
2018-08-25T23:50:07.507Z,23.5
2018-08-25T23:52:05.230Z,23.5
2018-08-25T23:54:05.226Z,23.5
2018-08-25T23:56:07.578Z,23.5
2018-08-25T23:58:05.333Z,23.5
